createdAt,value
2023-04-26T00:04:42.243Z,12.10
2023-04-26T00:09:45.095Z,14.15
2023-04-26T00:14:47.898Z,12.60
2023-04-26T00:19:53.980Z,14.63
2023-04-26T00:24:56.551Z,13.88
2023-04-26T00:29:59.059Z,13.97
2023-04-26T00:35:04.277Z,12.53
2023-04-26T00:40:07.599Z,12.75
2023-04-26T00:45:10.343Z,13.03
2023-04-26T00:50:32.789Z,13.98
2023-04-26T00:55:36.591Z,13.30
2023-04-26T01:00:39.329Z,12.33
2023-04-26T01:05:44.734Z,11.38
2023-04-26T01:10:50.428Z,14.18
2023-04-26T01:15:54.537Z,14.27
2023-04-26T01:21:00.576Z,13.10
2023-04-26T01:26:04.685Z,15.90
2023-04-26T01:31:07.789Z,13.20
2023-04-26T01:36:13.690Z,12.55
2023-04-26T01:41:16.414Z,13.17
2023-04-26T01:46:19.189Z,13.53
2023-04-26T01:51:22.018Z,13.80
2023-04-26T01:56:26.270Z,14.03
2023-04-26T02:01:29.464Z,13.88
2023-04-26T02:06:32.598Z,13.50
2023-04-26T02:11:35.249Z,13.87
2023-04-26T02:16:40.730Z,15.23
2023-04-26T02:22:00.587Z,13.50
2023-04-26T02:27:04.246Z,13.33
2023-04-26T02:32:06.933Z,16.52
2023-04-26T02:37:09.674Z,13.37
2023-04-26T02:42:14.817Z,15.07
2023-04-26T02:47:17.805Z,15.70
2023-04-26T02:52:20.971Z,19.80
2023-04-26T02:57:23.638Z,14.93
2023-04-26T03:02:26.764Z,14.33
2023-04-26T03:07:29.642Z,16.98
2023-04-26T03:12:33.220Z,13.10
2023-04-26T03:17:38.750Z,14.57
2023-04-26T03:22:41.522Z,15.25
2023-04-26T03:27:44.545Z,17.63
2023-04-26T03:32:47.264Z,16.83
2023-04-26T03:37:52.444Z,14.13
2023-04-26T03:42:57.293Z,15.47
2023-04-26T03:47:59.852Z,13.10
2023-04-26T03:53:03.042Z,17.73
2023-04-26T03:58:08.381Z,13.60
2023-04-26T04:03:12.601Z,14.40
2023-04-26T04:08:16.077Z,14.05
2023-04-26T04:13:18.898Z,13.13
2023-04-26T04:18:22.424Z,13.60
2023-04-26T04:23:25.055Z,12.15
2023-04-26T04:28:30.120Z,9.50
2023-04-26T04:33:33.084Z,10.43
2023-04-26T04:38:36.519Z,13.10
2023-04-26T04:43:41.070Z,14.03
2023-04-26T04:48:47.615Z,11.10
2023-04-26T04:53:53.692Z,9.50
2023-04-26T04:58:59.324Z,9.30
2023-04-26T05:04:02.383Z,6.43
2023-04-26T05:09:06.179Z,14.93
2023-04-26T05:14:09.408Z,7.35
2023-04-26T05:19:13.681Z,7.53
2023-04-26T05:24:16.698Z,9.55
2023-04-26T05:29:19.628Z,7.07
2023-04-26T05:34:48.889Z,7.03
2023-04-26T05:39:52.797Z,6.70
2023-04-26T05:44:59.527Z,9.82
2023-04-26T05:50:04.856Z,9.67
2023-04-26T05:55:09.277Z,6.90
2023-04-26T06:00:15.988Z,9.48
2023-04-26T06:05:20.940Z,9.93
2023-04-26T06:10:23.646Z,7.47
2023-04-26T06:15:27.963Z,7.13
2023-04-26T06:20:31.131Z,5.97
2023-04-26T06:25:34.503Z,8.90
2023-04-26T06:30:37.586Z,7.72
2023-04-26T06:35:41.702Z,8.13
2023-04-26T06:40:45.698Z,6.93
2023-04-26T06:45:50.023Z,6.63
2023-04-26T06:50:55.224Z,9.27
2023-04-26T06:55:58.509Z,6.82
2023-04-26T07:01:01.616Z,7.90
2023-04-26T07:06:05.285Z,8.63
2023-04-26T07:11:11.700Z,7.80
2023-04-26T07:16:15.376Z,6.73
2023-04-26T07:21:21.023Z,7.88
2023-04-26T07:26:24.601Z,7.10
2023-04-26T07:31:27.175Z,11.40
2023-04-26T07:36:29.717Z,7.13
2023-04-26T07:41:32.908Z,8.60
2023-04-26T07:46:35.426Z,7.82
2023-04-26T07:51:38.035Z,7.70
2023-04-26T07:56:40.640Z,8.20
2023-04-26T08:01:43.279Z,7.70
2023-04-26T08:06:48.829Z,8.47
2023-04-26T08:11:51.462Z,7.80
2023-04-26T08:16:54.773Z,7.35
2023-04-26T08:22:00.222Z,8.67
2023-04-26T08:27:02.873Z,6.70
2023-04-26T08:32:05.649Z,7.45
2023-04-26T08:37:08.590Z,7.43
2023-04-26T08:42:16.824Z,7.60
2023-04-26T08:47:38.090Z,7.90
2023-04-26T08:52:41.460Z,7.75
2023-04-26T08:57:47.796Z,7.33
2023-04-26T09:02:53.207Z,7.93
2023-04-26T09:08:04.745Z,8.18
2023-04-26T09:13:07.385Z,6.07
2023-04-26T09:18:22.251Z,7.27
2023-04-26T09:23:24.821Z,6.57
2023-04-26T09:28:27.628Z,7.68
2023-04-26T09:33:30.269Z,8.40
2023-04-26T09:44:03.791Z,7.20
2023-04-26T09:49:27.804Z,5.57
2023-04-26T09:55:04.691Z,6.18
2023-04-26T10:00:12.242Z,7.72
2023-04-26T10:05:18.068Z,7.30
2023-04-26T10:10:22.626Z,5.97
2023-04-26T10:15:25.358Z,6.43
2023-04-26T10:20:29.982Z,7.45
2023-04-26T10:25:40.334Z,7.03
2023-04-26T10:30:57.576Z,9.02
2023-04-26T10:36:14.159Z,8.38
2023-04-26T10:41:36.452Z,5.67
2023-04-26T10:46:40.425Z,6.47
2023-04-26T10:52:15.467Z,6.60
2023-04-26T10:57:21.723Z,7.07
2023-04-26T11:02:53.375Z,7.70
2023-04-26T11:08:09.300Z,5.97
2023-04-26T11:13:12.670Z,5.82
2023-04-26T11:18:20.120Z,7.87
2023-04-26T11:23:23.786Z,8.07
2023-04-26T11:28:26.625Z,5.85
2023-04-26T11:33:29.245Z,8.67
2023-04-26T11:38:31.972Z,6.07
2023-04-26T11:43:38.963Z,6.85
2023-04-26T11:48:41.958Z,6.20
2023-04-26T11:53:44.979Z,5.27
2023-04-26T11:58:52.908Z,6.70
2023-04-26T12:03:58.097Z,10.48
2023-04-26T12:09:08.503Z,6.83
2023-04-26T12:14:11.775Z,4.95
2023-04-26T12:19:14.439Z,5.50
2023-04-26T12:24:23.800Z,6.27
2023-04-26T12:29:26.891Z,5.97
2023-04-26T12:34:29.963Z,6.10
2023-04-26T12:39:35.620Z,8.83
2023-04-26T12:44:38.131Z,6.37
2023-04-26T12:49:40.627Z,5.65
2023-04-26T12:54:47.293Z,5.82
2023-04-26T12:59:49.721Z,7.97
2023-04-26T13:04:52.533Z,4.63
2023-04-26T13:09:55.319Z,6.93
2023-04-26T13:14:58.380Z,6.83
2023-04-26T13:20:01.091Z,7.05
2023-04-26T13:25:06.669Z,6.00
2023-04-26T13:30:09.857Z,5.07
2023-04-26T13:35:26.404Z,4.93
2023-04-26T13:40:29.257Z,5.90
2023-04-26T13:45:35.916Z,5.07
2023-04-26T13:50:38.542Z,4.80
2023-04-26T13:55:41.079Z,4.80
2023-04-26T14:00:43.576Z,8.43
2023-04-26T14:05:46.802Z,9.67
2023-04-26T14:10:51.557Z,11.60
2023-04-26T14:15:54.195Z,7.28
2023-04-26T14:20:56.935Z,6.37
2023-04-26T14:25:59.508Z,7.27
2023-04-26T14:31:05.012Z,8.55
2023-04-26T14:36:08.669Z,7.30
2023-04-26T14:41:17.681Z,4.30
2023-04-26T14:46:20.422Z,5.65
2023-04-26T14:51:23.046Z,7.78
2023-04-26T14:56:25.629Z,7.97
2023-04-26T15:01:28.595Z,7.93
2023-04-26T15:06:34.478Z,5.32
2023-04-26T15:11:37.289Z,7.77
2023-04-26T15:16:40.105Z,8.97
2023-04-26T15:21:42.779Z,7.15
2023-04-26T15:26:46.718Z,6.28
2023-04-26T15:31:49.347Z,10.13
2023-04-26T15:36:52.132Z,9.43
2023-04-26T15:41:54.653Z,10.52
2023-04-26T15:46:58.928Z,9.93
2023-04-26T15:52:01.525Z,12.95
2023-04-26T15:57:04.227Z,10.00
2023-04-26T16:02:07.424Z,10.03
2023-04-26T16:07:10.232Z,11.40
2023-04-26T16:12:12.794Z,14.23
2023-04-26T16:17:15.289Z,10.77
2023-04-26T16:22:21.498Z,8.67
2023-04-26T16:27:24.187Z,7.95
2023-04-26T16:32:26.990Z,8.95
2023-04-26T16:37:32.684Z,8.43
2023-04-26T16:42:35.257Z,9.13
2023-04-26T16:47:37.914Z,12.38
2023-04-26T16:52:40.746Z,9.03
2023-04-26T16:57:45.665Z,10.57
2023-04-26T17:02:49.915Z,11.50
2023-04-26T17:07:52.658Z,15.43
2023-04-26T17:12:55.589Z,11.03
2023-04-26T17:17:58.204Z,11.32
2023-04-26T17:23:01.900Z,9.02
2023-04-26T17:28:04.780Z,10.13
2023-04-26T17:33:10.998Z,12.27
2023-04-26T17:38:15.929Z,10.25
2023-04-26T17:43:19.491Z,14.03
2023-04-26T17:48:25.093Z,10.40
2023-04-26T17:53:27.648Z,12.60
2023-04-26T17:58:30.191Z,10.85
2023-04-26T18:03:36.002Z,12.17
2023-04-26T18:08:38.683Z,10.18
2023-04-26T18:13:41.369Z,10.05
2023-04-26T18:18:44.623Z,12.63
2023-04-26T18:23:47.403Z,15.98
2023-04-26T18:28:50.365Z,11.65
2023-04-26T18:33:53.095Z,10.73
2023-04-26T18:38:56.474Z,9.27
2023-04-26T18:43:59.108Z,12.95
2023-04-26T18:49:01.652Z,12.57
2023-04-26T18:54:04.414Z,14.97
2023-04-26T18:59:08.338Z,11.27
2023-04-26T19:04:10.994Z,13.15
2023-04-26T19:09:14.676Z,31.43
2023-04-26T19:14:17.537Z,26.17
2023-04-26T19:19:20.194Z,33.13
2023-04-26T19:24:22.833Z,19.43
2023-04-26T19:29:25.631Z,21.80
2023-04-26T19:34:28.195Z,23.90
2023-04-26T19:39:30.827Z,13.63
2023-04-26T19:44:33.419Z,14.02
2023-04-26T19:49:38.847Z,13.20
2023-04-26T19:54:47.174Z,9.77
2023-04-26T19:59:49.719Z,15.60
2023-04-26T20:04:52.567Z,13.23
2023-04-26T20:09:55.148Z,16.90
2023-04-26T20:14:57.879Z,9.95
2023-04-26T20:20:00.680Z,10.87
2023-04-26T20:25:05.061Z,9.00
2023-04-26T20:30:08.452Z,9.75
2023-04-26T20:35:13.165Z,11.80
2023-04-26T20:40:15.716Z,12.57
2023-04-26T20:45:18.332Z,9.25
2023-04-26T20:50:21.196Z,9.37
2023-04-26T20:55:23.756Z,12.35
2023-04-26T21:00:28.579Z,11.57
2023-04-26T21:05:31.209Z,18.10
2023-04-26T21:10:36.505Z,12.73
2023-04-26T21:15:39.142Z,15.07
2023-04-26T21:20:41.750Z,17.37
2023-04-26T21:25:46.461Z,15.40
2023-04-26T21:30:49.121Z,15.13
2023-04-26T21:35:51.588Z,16.27
2023-04-26T21:40:54.208Z,18.88
2023-04-26T21:45:58.586Z,16.33
2023-04-26T21:51:01.287Z,13.53
2023-04-26T21:56:05.954Z,11.60
2023-04-26T22:01:15.789Z,11.50
2023-04-26T22:06:18.404Z,8.07
2023-04-26T22:11:22.005Z,11.65
2023-04-26T22:16:24.736Z,10.87
2023-04-26T22:21:28.603Z,9.85
2023-04-26T22:26:34.323Z,9.82
2023-04-26T22:31:36.862Z,10.53
2023-04-26T22:36:40.040Z,9.70
2023-04-26T22:41:42.601Z,9.97
2023-04-26T22:46:45.084Z,11.63
2023-04-26T22:51:57.362Z,8.73
2023-04-26T22:57:05.824Z,7.90
2023-04-26T23:02:08.242Z,8.10
2023-04-26T23:07:10.818Z,11.05
2023-04-26T23:12:19.147Z,9.77
2023-04-26T23:17:21.696Z,9.63
2023-04-26T23:22:24.296Z,8.47
2023-04-26T23:27:26.881Z,9.13
2023-04-26T23:32:29.406Z,9.50
2023-04-26T23:37:32.590Z,10.63
2023-04-26T23:42:35.159Z,9.05
2023-04-26T23:47:37.656Z,9.13
2023-04-26T23:52:41.339Z,11.07
2023-04-26T23:58:02.506Z,10.95
